createdAt,value
2019-03-15T00:00:41.248Z,82.09
2019-03-15T00:01:41.266Z,82.50
2019-03-15T00:02:41.237Z,82.81
2019-03-15T00:03:41.219Z,82.09
2019-03-15T00:04:41.210Z,82.09
2019-03-15T00:05:41.213Z,82.40
2019-03-15T00:06:41.190Z,82.91
2019-03-15T00:07:41.323Z,82.19
2019-03-15T00:08:41.167Z,82.70
2019-03-15T00:09:41.156Z,82.43
2019-03-15T00:10:41.163Z,83.01
2019-03-15T00:11:41.136Z,82.40
2019-03-15T00:12:41.132Z,82.12
2019-03-15T00:13:41.116Z,82.23
2019-03-15T00:14:41.105Z,82.40
2019-03-15T00:15:41.105Z,82.43
2019-03-15T00:16:41.089Z,82.19
2019-03-15T00:17:41.074Z,81.98
2019-03-15T00:18:41.066Z,81.98
2019-03-15T00:19:41.052Z,81.98
2019-03-15T00:20:41.054Z,81.57
2019-03-15T00:21:41.034Z,81.05
2019-03-15T00:22:41.037Z,81.57
2019-03-15T00:23:41.012Z,81.57
2019-03-15T00:24:41.000Z,82.12
2019-03-15T00:25:41.020Z,81.61
2019-03-15T00:26:40.981Z,81.92
2019-03-15T00:27:40.972Z,81.92
2019-03-15T00:28:40.959Z,81.61
2019-03-15T00:29:41.082Z,81.88
2019-03-15T00:30:40.949Z,82.23
2019-03-15T00:31:40.927Z,81.81
2019-03-15T00:32:40.926Z,81.71
2019-03-15T00:33:40.929Z,81.81
2019-03-15T00:34:41.027Z,81.09
2019-03-15T00:35:40.904Z,81.61
2019-03-15T00:36:40.882Z,82.12
2019-03-15T00:37:40.864Z,81.71
2019-03-15T00:38:40.851Z,81.71
2019-03-15T00:39:40.937Z,81.65
2019-03-15T00:40:40.842Z,81.92
2019-03-15T00:41:40.821Z,81.75
2019-03-15T00:42:40.810Z,81.81
2019-03-15T00:43:40.803Z,81.71
2019-03-15T00:44:41.047Z,81.30
2019-03-15T00:45:40.793Z,81.61
2019-03-15T00:46:40.775Z,81.51
2019-03-15T00:47:40.757Z,81.71
2019-03-15T00:48:40.746Z,81.96
2019-03-15T00:49:40.741Z,81.65
2019-03-15T00:50:40.758Z,81.75
2019-03-15T00:51:40.714Z,81.03
2019-03-15T00:52:40.703Z,80.99
2019-03-15T00:53:40.695Z,81.65
2019-03-15T00:54:40.684Z,81.85
2019-03-15T00:55:40.681Z,81.23
2019-03-15T00:56:40.674Z,81.13
2019-03-15T00:57:40.652Z,80.82
2019-03-15T00:58:40.644Z,80.93
2019-03-15T00:59:40.635Z,80.93
2019-03-15T01:00:40.635Z,80.47
2019-03-15T01:01:40.620Z,80.51
2019-03-15T01:02:40.598Z,79.75
2019-03-15T01:03:40.590Z,79.55
2019-03-15T01:04:40.579Z,79.75
2019-03-15T01:05:40.570Z,80.06
2019-03-15T01:06:40.566Z,79.69
2019-03-15T01:07:40.562Z,79.44
2019-03-15T01:08:40.541Z,79.44
2019-03-15T01:09:40.535Z,79.07
2019-03-15T01:10:40.514Z,78.93
2019-03-15T01:11:40.515Z,79.24
2019-03-15T01:12:40.494Z,79.24
2019-03-15T01:13:40.484Z,79.17
2019-03-15T01:14:40.473Z,78.93
2019-03-15T01:15:41.140Z,78.72
2019-03-15T01:16:40.464Z,79.03
2019-03-15T01:17:40.443Z,78.62
2019-03-15T01:18:40.430Z,79.03
2019-03-15T01:19:40.430Z,79.24
2019-03-15T01:20:40.410Z,78.83
2019-03-15T01:21:40.410Z,78.93
2019-03-15T01:22:40.389Z,79.03
2019-03-15T01:23:40.379Z,78.72
2019-03-15T01:24:40.367Z,79.03
2019-03-15T01:25:40.442Z,79.24
2019-03-15T01:26:40.362Z,79.03
2019-03-15T01:27:40.336Z,78.72
2019-03-15T01:28:40.327Z,78.62
2019-03-15T01:29:40.349Z,79.03
2019-03-15T01:30:40.306Z,78.72
2019-03-15T01:31:40.319Z,79.03
2019-03-15T01:32:40.286Z,78.72
2019-03-15T01:33:40.275Z,79.03
2019-03-15T01:34:40.264Z,77.80
2019-03-15T01:35:40.253Z,78.07
2019-03-15T01:36:40.301Z,78.11
2019-03-15T01:37:40.241Z,78.11
2019-03-15T01:38:40.227Z,78.21
2019-03-15T01:39:40.209Z,77.69
2019-03-15T01:40:40.204Z,78.11
2019-03-15T01:41:40.199Z,79.03
2019-03-15T01:42:40.179Z,79.03
2019-03-15T01:43:40.167Z,78.62
2019-03-15T01:44:40.172Z,78.93
2019-03-15T01:45:40.145Z,79.14
2019-03-15T01:46:40.148Z,78.93
2019-03-15T01:47:40.131Z,78.62
2019-03-15T01:48:40.113Z,78.79
2019-03-15T01:49:40.107Z,79.10
2019-03-15T01:50:40.123Z,78.21
2019-03-15T01:51:40.096Z,79.03
2019-03-15T01:52:40.084Z,79.14
2019-03-15T01:53:40.061Z,78.83
2019-03-15T01:54:40.049Z,78.62
2019-03-15T01:55:40.046Z,77.86
2019-03-15T01:56:40.057Z,78.11
2019-03-15T01:57:40.139Z,79.34
2019-03-15T01:58:40.007Z,78.07
2019-03-15T01:59:40.005Z,77.66
2019-03-15T02:00:39.983Z,77.14
2019-03-15T02:01:39.976Z,77.35
2019-03-15T02:02:39.971Z,78.79
2019-03-15T02:03:39.955Z,77.66
2019-03-15T02:04:39.941Z,77.66
2019-03-15T02:05:39.934Z,77.55
2019-03-15T02:06:39.924Z,76.83
2019-03-15T02:07:39.970Z,77.45
2019-03-15T02:08:39.899Z,77.86
2019-03-15T02:09:39.888Z,77.66
2019-03-15T02:10:39.880Z,77.55
2019-03-15T02:11:39.873Z,77.35
2019-03-15T02:12:39.868Z,77.55
2019-03-15T02:13:39.847Z,77.66
2019-03-15T02:14:39.835Z,77.04
2019-03-15T02:15:39.824Z,77.04
2019-03-15T02:16:39.821Z,76.93
2019-03-15T02:17:39.816Z,77.76
2019-03-15T02:18:39.793Z,77.45
2019-03-15T02:19:39.783Z,77.55
2019-03-15T02:20:39.771Z,78.17
2019-03-15T02:21:39.766Z,77.55
2019-03-15T02:22:39.761Z,76.83
2019-03-15T02:23:39.761Z,76.73
2019-03-15T02:24:39.728Z,76.93
2019-03-15T02:25:39.718Z,76.59
2019-03-15T02:26:39.707Z,76.53
2019-03-15T02:27:39.729Z,76.83
2019-03-15T02:28:39.686Z,77.04
2019-03-15T02:29:39.683Z,76.63
2019-03-15T02:30:39.677Z,75.46
2019-03-15T02:31:39.654Z,75.67
2019-03-15T02:32:39.857Z,75.97
2019-03-15T02:33:39.631Z,75.67
2019-03-15T02:34:39.636Z,75.15
2019-03-15T02:35:39.612Z,75.35
2019-03-15T02:36:40.195Z,76.28
2019-03-15T02:37:39.611Z,75.87
2019-03-15T02:38:39.580Z,75.87
2019-03-15T02:39:39.567Z,75.05
2019-03-15T02:40:39.594Z,75.15
2019-03-15T02:41:39.545Z,75.87
2019-03-15T02:42:39.548Z,75.56
2019-03-15T02:43:39.526Z,75.87
2019-03-15T02:44:39.587Z,75.77
2019-03-15T02:45:39.502Z,75.77
2019-03-15T02:46:39.491Z,75.56
2019-03-15T02:47:39.491Z,75.77
2019-03-15T02:48:40.729Z,75.25
2019-03-15T02:49:39.463Z,75.56
2019-03-15T02:50:39.450Z,75.67
2019-03-15T02:51:39.454Z,75.77
2019-03-15T02:52:39.438Z,75.15
2019-03-15T02:53:39.419Z,75.42
2019-03-15T02:54:39.444Z,74.80
2019-03-15T02:55:39.404Z,74.63
2019-03-15T02:56:39.384Z,74.70
2019-03-15T02:57:39.393Z,75.42
2019-03-15T02:58:39.366Z,75.73
2019-03-15T02:59:39.357Z,75.01
2019-03-15T03:00:40.879Z,74.80
2019-03-15T03:01:39.331Z,74.91
2019-03-15T03:02:39.353Z,74.50
2019-03-15T03:03:39.311Z,75.22
2019-03-15T03:04:39.394Z,75.42
2019-03-15T03:05:39.301Z,74.19
2019-03-15T03:06:39.277Z,74.60
2019-03-15T03:07:39.290Z,75.12
2019-03-15T03:08:39.262Z,74.80
2019-03-15T03:09:39.247Z,74.60
2019-03-15T03:10:39.238Z,74.70
2019-03-15T03:11:39.271Z,74.60
2019-03-15T03:12:39.213Z,76.35
2019-03-15T03:13:39.217Z,76.76
2019-03-15T03:14:39.204Z,78.72
2019-03-15T03:15:39.182Z,79.54
2019-03-15T03:16:39.172Z,81.81
2019-03-15T03:17:40.231Z,83.55
2019-03-15T03:18:39.165Z,84.27
2019-03-15T03:19:39.140Z,85.24
2019-03-15T03:20:39.237Z,87.40
2019-03-15T03:21:39.121Z,88.68
2019-03-15T03:22:39.108Z,88.57
2019-03-15T03:23:39.105Z,88.99
2019-03-15T03:24:39.086Z,90.73
2019-03-15T03:25:39.074Z,90.47
2019-03-15T03:26:40.011Z,90.99
2019-03-15T03:27:39.055Z,90.47
2019-03-15T03:28:39.055Z,91.19
2019-03-15T03:29:39.033Z,90.88
2019-03-15T03:30:39.025Z,90.72
2019-03-15T03:31:39.021Z,90.92
2019-03-15T03:32:39.602Z,91.03
2019-03-15T03:33:40.532Z,90.82
2019-03-15T03:34:40.565Z,91.64
2019-03-15T03:35:38.979Z,92.61
2019-03-15T03:36:38.961Z,91.44
2019-03-15T03:37:38.949Z,91.38
2019-03-15T03:38:39.171Z,91.64
2019-03-15T03:39:38.935Z,91.28
2019-03-15T03:40:38.940Z,91.75
2019-03-15T03:41:38.908Z,92.72
2019-03-15T03:42:38.914Z,92.16
2019-03-15T03:43:38.902Z,92.21
2019-03-15T03:44:38.878Z,91.79
2019-03-15T03:45:38.876Z,91.48
2019-03-15T03:46:38.856Z,91.69
2019-03-15T03:47:38.848Z,91.89
2019-03-15T03:48:38.844Z,93.03
2019-03-15T03:49:38.965Z,93.65
2019-03-15T03:50:38.813Z,93.54
2019-03-15T03:51:38.802Z,92.51
2019-03-15T03:52:41.441Z,92.72
2019-03-15T03:53:38.800Z,92.31
2019-03-15T03:54:38.996Z,92.82
2019-03-15T03:55:38.761Z,93.07
2019-03-15T03:56:38.750Z,93.96
2019-03-15T03:57:38.743Z,93.44
2019-03-15T03:58:38.743Z,94.37
2019-03-15T03:59:38.719Z,94.47
2019-03-15T04:00:38.710Z,94.42
2019-03-15T04:01:38.700Z,94.62
2019-03-15T04:02:38.703Z,95.03
2019-03-15T04:03:38.697Z,94.72
2019-03-15T04:04:38.673Z,95.14
2019-03-15T04:05:38.657Z,95.03
2019-03-15T04:06:38.647Z,94.42
2019-03-15T04:07:38.638Z,94.72
2019-03-15T04:08:38.642Z,93.79
2019-03-15T04:09:38.618Z,94.42
2019-03-15T04:10:38.608Z,95.03
2019-03-15T04:11:38.596Z,94.93
2019-03-15T04:12:38.598Z,94.82
2019-03-15T04:13:38.588Z,94.87
2019-03-15T04:14:38.624Z,94.67
2019-03-15T04:15:38.558Z,94.87
2019-03-15T04:16:38.544Z,95.34
2019-03-15T04:17:38.545Z,95.39
2019-03-15T04:18:38.543Z,95.55
2019-03-15T04:19:38.541Z,95.28
2019-03-15T04:20:38.501Z,96.42
2019-03-15T04:21:38.502Z,96.31
2019-03-15T04:22:38.487Z,96.11
2019-03-15T04:23:38.886Z,95.59
2019-03-15T04:24:38.462Z,96.31
2019-03-15T04:25:40.545Z,95.39
2019-03-15T04:26:38.440Z,95.18
2019-03-15T04:27:38.430Z,96.11
2019-03-15T04:28:38.431Z,96.21
2019-03-15T04:29:38.408Z,96.21
2019-03-15T04:30:38.400Z,96.31
2019-03-15T04:31:38.408Z,96.11
2019-03-15T04:32:38.391Z,96.21
2019-03-15T04:33:38.385Z,96.31
2019-03-15T04:34:38.361Z,96.31
2019-03-15T04:35:38.350Z,96.62
2019-03-15T04:36:38.337Z,96.83
2019-03-15T04:37:38.326Z,96.83
2019-03-15T04:38:38.330Z,96.21
2019-03-15T04:39:38.310Z,96.31
2019-03-15T04:40:38.307Z,96.27
2019-03-15T04:41:38.284Z,96.42
2019-03-15T04:42:38.276Z,96.42
2019-03-15T04:43:38.287Z,96.83
2019-03-15T04:44:38.260Z,97.14
2019-03-15T04:45:38.246Z,96.42
2019-03-15T04:46:38.236Z,96.62
2019-03-15T04:47:38.223Z,96.31
2019-03-15T04:48:38.213Z,97.25
2019-03-15T04:49:38.246Z,96.83
2019-03-15T04:50:38.267Z,97.45
2019-03-15T04:51:38.183Z,96.79
2019-03-15T04:52:38.182Z,97.04
2019-03-15T04:53:38.271Z,97.45
2019-03-15T04:54:38.270Z,97.55
2019-03-15T04:55:38.168Z,97.72
2019-03-15T04:56:38.132Z,98.23
2019-03-15T04:57:38.121Z,98.38
2019-03-15T04:58:38.112Z,97.86
2019-03-15T04:59:38.109Z,96.83
2019-03-15T05:00:38.116Z,97.20
2019-03-15T05:01:38.083Z,96.99
2019-03-15T05:02:38.113Z,97.14
2019-03-15T05:03:38.095Z,96.37
2019-03-15T05:04:38.092Z,96.37
2019-03-15T05:05:38.040Z,96.37
2019-03-15T05:06:38.029Z,96.58
2019-03-15T05:07:38.029Z,96.58
2019-03-15T05:08:38.005Z,96.48
2019-03-15T05:09:38.022Z,97.09
2019-03-15T05:10:37.991Z,97.09
2019-03-15T05:11:37.975Z,97.09
2019-03-15T05:12:37.970Z,97.20
2019-03-15T05:13:37.962Z,97.20
2019-03-15T05:14:37.999Z,96.48
2019-03-15T05:15:37.942Z,96.27
2019-03-15T05:16:37.927Z,96.37
2019-03-15T05:17:37.915Z,96.58
2019-03-15T05:18:37.910Z,96.89
2019-03-15T05:19:37.902Z,97.51
2019-03-15T05:20:37.881Z,97.09
2019-03-15T05:21:37.873Z,97.20
2019-03-15T05:22:37.865Z,96.27
2019-03-15T05:23:37.850Z,96.27
2019-03-15T05:24:37.854Z,97.09
2019-03-15T05:25:37.918Z,96.23
2019-03-15T05:26:37.820Z,96.37
2019-03-15T05:27:37.817Z,96.79
2019-03-15T05:28:37.799Z,95.96
2019-03-15T05:29:37.807Z,96.27
2019-03-15T05:30:37.779Z,96.33
2019-03-15T05:31:37.768Z,96.79
2019-03-15T05:32:37.760Z,96.37
2019-03-15T05:33:37.749Z,96.23
2019-03-15T05:34:37.743Z,95.92
2019-03-15T05:35:37.738Z,96.17
2019-03-15T05:36:37.723Z,95.03
2019-03-15T05:37:37.708Z,94.72
2019-03-15T05:38:37.699Z,95.03
2019-03-15T05:39:37.687Z,95.34
2019-03-15T05:40:37.686Z,95.50
2019-03-15T05:41:37.667Z,95.30
2019-03-15T05:42:37.658Z,94.99
2019-03-15T05:43:37.645Z,95.09
2019-03-15T05:44:37.649Z,96.12
2019-03-15T05:45:37.636Z,95.30
2019-03-15T05:46:37.617Z,95.30
2019-03-15T05:47:37.602Z,94.57
2019-03-15T05:48:37.590Z,94.06
2019-03-15T05:49:37.593Z,93.44
2019-03-15T05:50:40.546Z,94.68
2019-03-15T05:51:37.561Z,94.57
2019-03-15T05:52:37.555Z,94.37
2019-03-15T05:53:37.542Z,95.20
2019-03-15T05:54:37.533Z,94.68
2019-03-15T05:55:37.538Z,94.89
2019-03-15T05:56:37.510Z,94.47
2019-03-15T05:57:37.501Z,94.57
2019-03-15T05:58:37.492Z,94.68
2019-03-15T05:59:37.478Z,94.27
2019-03-15T06:00:37.479Z,94.47
2019-03-15T06:01:37.457Z,94.99
2019-03-15T06:02:37.456Z,94.37
2019-03-15T06:03:47.983Z,94.68
2019-03-15T06:04:38.428Z,94.99
2019-03-15T06:05:37.429Z,94.78
2019-03-15T06:06:37.409Z,94.57
2019-03-15T06:07:37.398Z,94.57
2019-03-15T06:08:37.385Z,94.89
2019-03-15T06:09:37.376Z,94.89
2019-03-15T06:10:37.374Z,94.78
2019-03-15T06:11:37.359Z,94.78
2019-03-15T06:12:37.346Z,94.84
2019-03-15T06:13:37.333Z,95.61
2019-03-15T06:14:37.326Z,94.99
2019-03-15T06:15:37.323Z,94.47
2019-03-15T06:16:37.303Z,94.57
2019-03-15T06:17:37.291Z,94.89
2019-03-15T06:18:37.285Z,94.68
2019-03-15T06:19:37.269Z,95.20
2019-03-15T06:20:37.274Z,94.57
2019-03-15T06:21:37.250Z,94.89
2019-03-15T06:22:37.241Z,94.43
2019-03-15T06:23:37.232Z,94.53
2019-03-15T06:24:37.228Z,94.74
2019-03-15T06:25:37.221Z,94.95
2019-03-15T06:26:37.207Z,94.84
2019-03-15T06:27:37.187Z,94.84
2019-03-15T06:28:37.176Z,94.95
2019-03-15T06:29:37.167Z,96.08
2019-03-15T06:30:37.173Z,95.67
2019-03-15T06:31:37.145Z,96.08
2019-03-15T06:32:37.141Z,96.28
2019-03-15T06:33:37.123Z,95.46
2019-03-15T06:34:39.422Z,96.18
2019-03-15T06:35:37.117Z,96.18
2019-03-15T06:36:37.092Z,95.87
2019-03-15T06:37:37.085Z,96.18
2019-03-15T06:38:37.073Z,95.77
2019-03-15T06:39:37.210Z,95.87
2019-03-15T06:40:37.082Z,96.18
2019-03-15T06:41:37.041Z,96.08
2019-03-15T06:42:37.030Z,94.84
2019-03-15T06:43:37.020Z,94.64
2019-03-15T06:44:37.641Z,94.49
2019-03-15T06:45:36.999Z,94.74
2019-03-15T06:46:37.037Z,94.38
2019-03-15T06:47:36.992Z,93.66
2019-03-15T06:48:36.967Z,94.53
2019-03-15T06:49:36.960Z,93.91
2019-03-15T06:50:36.948Z,94.64
2019-03-15T06:51:36.941Z,94.70
2019-03-15T06:52:36.926Z,93.98
2019-03-15T06:53:36.917Z,93.66
2019-03-15T06:54:36.905Z,94.02
2019-03-15T06:55:36.913Z,93.71
2019-03-15T06:56:36.894Z,93.60
2019-03-15T06:57:36.872Z,93.98
2019-03-15T06:58:36.863Z,94.23
2019-03-15T06:59:37.255Z,93.77
2019-03-15T07:00:36.840Z,93.46
2019-03-15T07:01:36.841Z,93.91
2019-03-15T07:02:36.821Z,94.49
2019-03-15T07:03:36.813Z,94.95
2019-03-15T07:04:36.800Z,95.10
2019-03-15T07:05:36.796Z,95.42
2019-03-15T07:06:36.790Z,94.80
2019-03-15T07:07:36.775Z,94.90
2019-03-15T07:08:36.756Z,94.90
2019-03-15T07:09:36.746Z,94.49
2019-03-15T07:10:36.738Z,94.59
2019-03-15T07:11:36.737Z,94.70
2019-03-15T07:12:39.862Z,94.23
2019-03-15T07:13:36.709Z,94.64
2019-03-15T07:14:36.705Z,93.30
2019-03-15T07:15:36.817Z,93.56
2019-03-15T07:16:38.235Z,93.66
2019-03-15T07:17:36.663Z,93.56
2019-03-15T07:18:36.661Z,93.66
2019-03-15T07:19:36.644Z,93.56
2019-03-15T07:20:36.634Z,93.25
2019-03-15T07:21:37.052Z,93.50
2019-03-15T07:22:36.625Z,92.94
2019-03-15T07:23:36.616Z,92.94
2019-03-15T07:24:36.593Z,93.35
2019-03-15T07:25:36.581Z,92.84
2019-03-15T07:26:36.585Z,92.99
2019-03-15T07:27:36.569Z,93.46
2019-03-15T07:28:36.549Z,93.71
2019-03-15T07:29:36.542Z,92.94
2019-03-15T07:30:36.545Z,93.15
2019-03-15T07:31:36.549Z,93.56
2019-03-15T07:32:36.508Z,93.15
2019-03-15T07:33:36.499Z,93.46
2019-03-15T07:34:36.515Z,93.25
2019-03-15T07:35:36.482Z,93.46
2019-03-15T07:36:37.441Z,93.46
2019-03-15T07:37:36.460Z,92.94
2019-03-15T07:38:36.445Z,93.46
2019-03-15T07:39:36.442Z,92.43
2019-03-15T07:40:36.427Z,92.22
2019-03-15T07:41:36.434Z,92.94
2019-03-15T07:42:36.405Z,92.94
2019-03-15T07:43:36.391Z,92.84
2019-03-15T07:44:36.509Z,92.22
2019-03-15T07:45:36.372Z,92.74
2019-03-15T07:46:36.372Z,92.53
2019-03-15T07:47:36.349Z,92.84
2019-03-15T07:48:36.341Z,93.66
2019-03-15T07:49:36.328Z,93.46
2019-03-15T07:50:36.326Z,93.46
2019-03-15T07:51:36.317Z,93.46
2019-03-15T07:52:36.296Z,92.74
2019-03-15T07:53:36.286Z,92.53
2019-03-15T07:54:38.271Z,92.49
2019-03-15T07:55:36.292Z,92.22
2019-03-15T07:56:36.313Z,92.63
2019-03-15T07:57:36.257Z,92.94
2019-03-15T07:58:36.276Z,92.63
2019-03-15T07:59:36.234Z,92.63
2019-03-15T08:00:36.239Z,92.94
2019-03-15T08:01:36.216Z,92.08
2019-03-15T08:02:36.225Z,92.74
2019-03-15T08:03:36.182Z,92.53
2019-03-15T08:04:36.217Z,92.63
2019-03-15T08:05:36.161Z,92.43
2019-03-15T08:06:36.426Z,92.49
2019-03-15T08:07:44.177Z,91.87
2019-03-15T08:08:37.260Z,91.36
2019-03-15T08:09:36.132Z,92.59
2019-03-15T08:10:36.109Z,92.49
2019-03-15T08:11:36.115Z,93.01
2019-03-15T08:12:38.612Z,92.49
2019-03-15T08:13:36.078Z,92.18
2019-03-15T08:14:36.065Z,91.87
2019-03-15T08:15:36.056Z,91.87
2019-03-15T08:16:36.056Z,91.56
2019-03-15T08:17:36.060Z,91.46
2019-03-15T08:18:36.056Z,92.18
2019-03-15T08:19:36.033Z,91.00
2019-03-15T08:20:36.003Z,92.38
2019-03-15T08:21:35.992Z,92.34
2019-03-15T08:22:35.996Z,91.62
2019-03-15T08:23:35.973Z,92.44
2019-03-15T08:24:36.786Z,91.31
2019-03-15T08:25:35.961Z,91.42
2019-03-15T08:26:36.059Z,91.93
2019-03-15T08:27:35.945Z,92.14
2019-03-15T08:28:35.917Z,92.44
2019-03-15T08:29:35.916Z,91.52
2019-03-15T08:30:35.899Z,92.34
2019-03-15T08:31:35.887Z,92.44
2019-03-15T08:32:35.930Z,92.44
2019-03-15T08:33:35.882Z,92.65
2019-03-15T08:34:35.866Z,92.24
2019-03-15T08:35:35.864Z,91.31
2019-03-15T08:36:35.844Z,91.72
2019-03-15T08:37:35.835Z,91.11
2019-03-15T08:38:46.904Z,91.31
2019-03-15T08:39:36.803Z,91.31
2019-03-15T08:40:35.891Z,91.52
2019-03-15T08:41:35.780Z,90.59
2019-03-15T08:42:35.784Z,91.21
2019-03-15T08:43:35.759Z,90.69
2019-03-15T08:44:35.751Z,90.59
2019-03-15T08:45:35.736Z,90.80
2019-03-15T08:46:35.725Z,91.38
2019-03-15T08:47:35.732Z,91.11
2019-03-15T08:48:35.708Z,91.00
2019-03-15T08:49:35.694Z,91.99
2019-03-15T08:50:35.695Z,92.61
2019-03-15T08:51:35.671Z,91.68
2019-03-15T08:52:35.720Z,92.30
2019-03-15T08:53:35.686Z,91.58
2019-03-15T08:54:35.711Z,91.17
2019-03-15T08:55:35.704Z,90.86
2019-03-15T08:56:35.723Z,91.38
2019-03-15T08:57:35.637Z,91.27
2019-03-15T08:58:35.601Z,91.38
2019-03-15T08:59:35.587Z,91.47
2019-03-15T09:00:35.601Z,91.33
2019-03-15T09:01:35.641Z,91.13
2019-03-15T09:02:35.565Z,91.53
2019-03-15T09:03:35.550Z,90.92
2019-03-15T09:04:35.534Z,91.23
2019-03-15T09:05:35.624Z,91.64
2019-03-15T09:06:35.597Z,91.33
2019-03-15T09:07:35.564Z,91.44
2019-03-15T09:08:37.363Z,90.47
2019-03-15T09:09:36.094Z,90.57
2019-03-15T09:10:35.503Z,91.08
2019-03-15T09:11:35.459Z,90.98
2019-03-15T09:12:35.493Z,91.49
2019-03-15T09:13:35.472Z,90.36
2019-03-15T09:14:35.446Z,91.29
2019-03-15T09:15:35.455Z,90.57
2019-03-15T09:16:35.447Z,90.16
2019-03-15T09:17:35.551Z,91.19
2019-03-15T09:18:35.405Z,91.29
2019-03-15T09:19:35.371Z,90.98
2019-03-15T09:20:35.374Z,90.98
2019-03-15T09:21:35.351Z,90.57
2019-03-15T09:22:37.829Z,90.16
2019-03-15T09:23:35.356Z,90.88
2019-03-15T09:24:35.322Z,91.08
2019-03-15T09:25:35.315Z,91.23
2019-03-15T09:26:35.387Z,91.29
2019-03-15T09:27:35.287Z,91.29
2019-03-15T09:28:35.287Z,91.08
2019-03-15T09:29:35.271Z,91.08
2019-03-15T09:30:35.269Z,91.29
2019-03-15T09:31:47.013Z,92.52
2019-03-15T09:32:36.247Z,92.52
2019-03-15T09:33:35.234Z,91.76
2019-03-15T09:34:35.213Z,91.29
2019-03-15T09:35:35.204Z,90.36
2019-03-15T09:36:48.958Z,91.29
2019-03-15T09:37:36.182Z,92.42
2019-03-15T09:38:35.186Z,92.32
2019-03-15T09:39:35.160Z,92.17
2019-03-15T09:40:35.155Z,92.21
2019-03-15T09:41:39.731Z,92.63
2019-03-15T09:42:36.134Z,92.11
2019-03-15T09:43:35.132Z,92.32
2019-03-15T09:44:37.480Z,91.35
2019-03-15T09:45:35.102Z,91.70
2019-03-15T09:46:35.088Z,90.88
2019-03-15T09:47:35.077Z,92.07
2019-03-15T09:48:35.074Z,91.45
2019-03-15T09:49:35.054Z,91.29
2019-03-15T09:50:50.073Z,90.88
2019-03-15T09:51:36.031Z,91.35
2019-03-15T09:52:35.022Z,92.17
2019-03-15T09:53:35.022Z,91.86
2019-03-15T09:54:35.004Z,92.07
2019-03-15T09:55:34.989Z,91.76
2019-03-15T09:56:34.980Z,91.86
2019-03-15T09:57:34.969Z,91.86
2019-03-15T09:58:34.984Z,92.38
2019-03-15T09:59:34.952Z,92.74
2019-03-15T10:00:35.026Z,92.74
2019-03-15T10:01:35.679Z,91.82
2019-03-15T10:02:34.918Z,92.64
2019-03-15T10:03:34.916Z,92.74
2019-03-15T10:04:36.169Z,92.33
2019-03-15T10:05:34.888Z,92.13
2019-03-15T10:06:34.876Z,91.61
2019-03-15T10:07:38.762Z,92.54
2019-03-15T10:08:34.863Z,91.37
2019-03-15T10:09:45.271Z,91.27
2019-03-15T10:10:35.831Z,90.85
2019-03-15T10:11:34.821Z,91.78
2019-03-15T10:12:34.812Z,91.16
2019-03-15T10:13:34.821Z,91.06
2019-03-15T10:14:34.897Z,90.91
2019-03-15T10:15:34.820Z,91.53
2019-03-15T10:16:34.771Z,91.06
2019-03-15T10:17:34.758Z,91.47
2019-03-15T10:18:34.763Z,92.08
2019-03-15T10:19:34.764Z,91.78
2019-03-15T10:20:34.727Z,92.35
2019-03-15T10:21:34.722Z,91.94
2019-03-15T10:22:34.706Z,91.94
2019-03-15T10:23:34.697Z,92.14
2019-03-15T10:24:34.700Z,91.84
2019-03-15T10:25:46.232Z,92.25
2019-03-15T10:26:35.662Z,92.04
2019-03-15T10:27:34.652Z,91.42
2019-03-15T10:28:34.642Z,92.04
2019-03-15T10:29:34.645Z,91.94
2019-03-15T10:30:34.630Z,92.35
2019-03-15T10:31:34.610Z,91.94
2019-03-15T10:32:34.599Z,91.49
2019-03-15T10:33:34.590Z,90.97
2019-03-15T10:34:35.758Z,91.53
2019-03-15T10:35:34.569Z,91.80
2019-03-15T10:36:34.878Z,92.10
2019-03-15T10:37:34.548Z,91.63
2019-03-15T10:38:34.546Z,92.21
2019-03-15T10:39:34.536Z,92.21
2019-03-15T10:40:34.517Z,91.80
2019-03-15T10:41:34.508Z,92.31
2019-03-15T10:42:34.495Z,92.27
2019-03-15T10:43:34.491Z,91.86
2019-03-15T10:44:34.487Z,91.24
2019-03-15T10:45:34.464Z,91.35
2019-03-15T10:46:34.452Z,92.06
2019-03-15T10:47:34.442Z,91.75
2019-03-15T10:48:34.430Z,91.96
2019-03-15T10:49:34.437Z,91.71
2019-03-15T10:50:34.410Z,92.32
2019-03-15T10:51:34.398Z,91.91
2019-03-15T10:52:34.389Z,92.43
2019-03-15T10:53:34.378Z,92.16
2019-03-15T10:54:34.380Z,91.91
2019-03-15T10:55:34.363Z,91.82
2019-03-15T10:56:34.346Z,91.82
2019-03-15T10:57:34.339Z,91.61
2019-03-15T10:58:34.325Z,91.71
2019-03-15T10:59:34.325Z,91.77
2019-03-15T11:00:34.303Z,91.87
2019-03-15T11:01:34.298Z,91.56
2019-03-15T11:02:34.282Z,91.97
2019-03-15T11:03:34.276Z,92.08
2019-03-15T11:04:34.275Z,92.03
2019-03-15T11:05:34.254Z,91.22
2019-03-15T11:06:34.248Z,92.03
2019-03-15T11:07:34.233Z,91.83
2019-03-15T11:08:34.220Z,91.17
2019-03-15T11:09:34.226Z,91.99
2019-03-15T11:10:34.214Z,92.10
2019-03-15T11:11:34.188Z,91.17
2019-03-15T11:12:34.181Z,91.78
2019-03-15T11:13:34.168Z,91.74
2019-03-15T11:14:34.169Z,90.82
2019-03-15T11:15:34.146Z,91.33
2019-03-15T11:16:34.142Z,91.74
2019-03-15T11:17:34.124Z,90.21
2019-03-15T11:18:34.115Z,90.72
2019-03-15T11:19:34.121Z,92.15
2019-03-15T11:20:34.093Z,91.44
2019-03-15T11:21:34.092Z,91.23
2019-03-15T11:22:34.077Z,90.72
2019-03-15T11:23:34.061Z,90.72
2019-03-15T11:24:34.062Z,91.80
2019-03-15T11:25:34.041Z,90.72
2019-03-15T11:26:34.030Z,91.85
2019-03-15T11:27:34.018Z,91.33
2019-03-15T11:28:34.008Z,91.85
2019-03-15T11:29:34.012Z,91.33
2019-03-15T11:30:33.990Z,90.92
2019-03-15T11:31:33.978Z,91.39
2019-03-15T11:32:33.966Z,91.50
2019-03-15T11:33:33.954Z,90.72
2019-03-15T11:34:33.956Z,91.09
2019-03-15T11:35:33.934Z,90.78
2019-03-15T11:36:33.923Z,90.78
2019-03-15T11:37:33.913Z,91.09
2019-03-15T11:38:33.902Z,88.64
2019-03-15T11:39:33.902Z,88.39
2019-03-15T11:40:33.881Z,88.49
2019-03-15T11:41:33.870Z,89.51
2019-03-15T11:42:33.860Z,88.29
2019-03-15T11:43:33.854Z,88.49
2019-03-15T11:44:33.849Z,88.79
2019-03-15T11:45:33.828Z,88.59
2019-03-15T11:46:33.819Z,87.98
2019-03-15T11:47:46.359Z,88.79
2019-03-15T11:48:34.795Z,87.88
2019-03-15T11:49:33.803Z,87.77
2019-03-15T11:50:33.776Z,88.85
2019-03-15T11:51:33.765Z,87.77
2019-03-15T11:52:33.753Z,87.12
2019-03-15T11:53:33.754Z,86.91
2019-03-15T11:54:33.759Z,87.53
2019-03-15T11:55:33.724Z,87.12
2019-03-15T11:56:33.713Z,86.51
2019-03-15T11:57:33.706Z,87.63
2019-03-15T11:58:33.692Z,86.91
2019-03-15T11:59:36.129Z,85.59
2019-03-15T12:00:33.674Z,86.30
2019-03-15T12:01:33.666Z,86.91
2019-03-15T12:02:33.656Z,86.16
2019-03-15T12:03:33.639Z,86.16
2019-03-15T12:04:33.639Z,85.65
2019-03-15T12:05:33.616Z,84.77
2019-03-15T12:06:33.608Z,84.94
2019-03-15T12:07:33.596Z,85.75
2019-03-15T12:08:33.585Z,86.26
2019-03-15T12:09:33.586Z,84.74
2019-03-15T12:10:33.564Z,84.83
2019-03-15T12:11:33.555Z,84.33
2019-03-15T12:12:33.548Z,84.80
2019-03-15T12:13:33.539Z,84.42
2019-03-15T12:14:40.751Z,84.28
2019-03-15T12:15:36.375Z,85.00
2019-03-15T12:16:33.500Z,84.63
2019-03-15T12:17:33.491Z,84.49
2019-03-15T12:18:33.479Z,85.00
2019-03-15T12:19:33.486Z,84.39
2019-03-15T12:20:33.460Z,83.87
2019-03-15T12:21:33.448Z,84.49
2019-03-15T12:22:33.440Z,84.80
2019-03-15T12:23:33.426Z,85.10
2019-03-15T12:24:33.440Z,83.16
2019-03-15T12:25:33.408Z,83.67
2019-03-15T12:26:40.263Z,83.67
2019-03-15T12:27:34.403Z,83.87
2019-03-15T12:28:33.375Z,83.26
2019-03-15T12:29:33.365Z,84.49
2019-03-15T12:30:33.357Z,83.87
2019-03-15T12:31:33.361Z,83.67
2019-03-15T12:32:33.333Z,84.90
2019-03-15T12:33:33.323Z,83.87
2019-03-15T12:34:33.310Z,84.69
2019-03-15T12:35:33.404Z,84.66
2019-03-15T12:36:33.291Z,84.49
2019-03-15T12:37:33.283Z,83.98
2019-03-15T12:38:33.271Z,84.28
2019-03-15T12:39:33.259Z,83.67
2019-03-15T12:40:33.251Z,83.16
2019-03-15T12:41:33.236Z,82.96
2019-03-15T12:42:33.226Z,83.37
2019-03-15T12:43:33.217Z,83.16
2019-03-15T12:44:33.206Z,82.86
2019-03-15T12:45:33.202Z,83.06
2019-03-15T12:46:33.190Z,83.02
2019-03-15T12:47:33.175Z,82.96
2019-03-15T12:48:33.169Z,82.96
2019-03-15T12:49:33.154Z,83.87
2019-03-15T12:50:33.145Z,83.67
2019-03-15T12:51:33.180Z,83.16
2019-03-15T12:52:41.960Z,83.67